Main page
METAR-TAF:

METAR-TAF

Airports :

Léopold Sédar Senghor International Airport

Dakar, Senegal

latitude: 14-44N, longitude: 017-30W, elevation: 27 m

Current weather observation

The report was made 46 minutes ago, at 06:00 UTC
Wind 6 kt from the West/Southwest
Temperature 25°C
Humidity 89%
Pressure 1013 hPa
Visibility: 8000 m
Few clouds at a height of 1100 ft

METAR: GOOY 150600Z 24006KT 8000 FEW011 25/23 Q1013

Time: 06:46 (06:46 UTC)

Forecast

The report was made 1 hour and 46 minutes ago, at 05:00 UTC
Forecast valid from 15 at 06 UTC to 16 at 12 UTC
Wind 10 kt from the West/Southwest
Visibility 10 km or more
Scattered clouds at a height of 1100 ft

TAF: GOOY 150500Z 1506/1612 24010KT 9999 SCT011

Weather observations and forecasts of more than 4000 airports (METAR and TAF reports).

The available stations are represented by yellow and red dots on the map.

Hover mouse over dot to see the name of the station.

Then click to see weather observations and forecasts.

To change the map : click on the green buttons with a black cross to zoom in, on the green button with a dash to zoom out, or on the green arrows for adjacent maps.


METAR-TAF: